createdAt,value
2022-12-03T00:02:14.491Z,102666.16
2022-12-03T00:04:40.959Z,102659.31
2022-12-03T00:07:07.326Z,102660.13
2022-12-03T00:09:33.727Z,102655.84
2022-12-03T00:12:00.117Z,102655.03
2022-12-03T00:14:26.536Z,102657.59
2022-12-03T00:16:52.901Z,102653.31
2022-12-03T00:19:19.361Z,102655.03
2022-12-03T00:21:45.761Z,102654.16
2022-12-03T00:24:12.156Z,102658.44
2022-12-03T00:26:38.584Z,102661.03
2022-12-03T00:29:05.073Z,102655.88
2022-12-03T00:31:31.502Z,102646.44
2022-12-03T00:33:57.978Z,102649.88
2022-12-03T00:36:24.419Z,102646.44
2022-12-03T00:38:50.813Z,102643.03
2022-12-03T00:41:17.201Z,102631.88
2022-12-03T00:43:43.623Z,102631.03
2022-12-03T00:46:10.051Z,102631.88
2022-12-03T00:48:36.541Z,102629.31
2022-12-03T00:51:02.944Z,102631.84
2022-12-03T00:53:29.622Z,102625.03
2022-12-03T00:55:56.099Z,102629.31
2022-12-03T00:58:22.538Z,102629.28
2022-12-03T01:00:48.954Z,102623.25
2022-12-03T01:03:15.340Z,102624.13
2022-12-03T01:05:41.695Z,102623.28
2022-12-03T01:08:08.099Z,102621.53
2022-12-03T01:10:34.536Z,102615.53
2022-12-03T01:13:00.924Z,102617.28
2022-12-03T01:15:27.381Z,102610.41
2022-12-03T01:17:54.395Z,102607.84
2022-12-03T01:20:20.933Z,102605.28
2022-12-03T01:22:47.466Z,102607.84
2022-12-03T01:25:13.904Z,102604.41
2022-12-03T01:27:40.261Z,102600.13
2022-12-03T01:30:07.568Z,102595.84
2022-12-03T01:32:33.967Z,102601.88
2022-12-03T01:35:00.399Z,102600.97
2022-12-03T01:37:27.401Z,102605.25
2022-12-03T01:39:54.180Z,102605.25
2022-12-03T01:42:26.387Z,102613.00
2022-12-03T01:44:55.786Z,102605.28
2022-12-03T01:47:27.320Z,102600.16
2022-12-03T01:50:01.732Z,102608.72
2022-12-03T01:52:31.951Z,102607.00
2022-12-03T01:55:00.534Z,102607.00
2022-12-03T01:57:40.531Z,102604.47
2022-12-03T02:00:08.097Z,102606.19
2022-12-03T02:02:34.846Z,102599.28
2022-12-03T02:05:01.484Z,102603.59
2022-12-03T02:07:30.318Z,102605.31
2022-12-03T02:09:59.426Z,102606.19
2022-12-03T02:12:35.105Z,102592.47
2022-12-03T02:15:02.031Z,102600.19
2022-12-03T02:17:28.837Z,102598.47
2022-12-03T02:19:56.063Z,102598.50
2022-12-03T02:22:26.967Z,102591.63
2022-12-03T02:25:04.787Z,102590.75
2022-12-03T02:27:31.220Z,102589.94
2022-12-03T02:29:57.729Z,102589.03
2022-12-03T02:32:24.263Z,102591.63
2022-12-03T02:34:51.868Z,102593.38
2022-12-03T02:37:24.040Z,102587.38
2022-12-03T02:39:55.422Z,102585.66
2022-12-03T02:42:37.970Z,102593.38
2022-12-03T02:45:19.602Z,102594.25
2022-12-03T02:47:50.447Z,102588.25
2022-12-03T02:50:21.988Z,102585.69
2022-12-03T02:52:49.311Z,102588.25
2022-12-03T02:55:17.814Z,102582.25
2022-12-03T02:57:48.171Z,102587.41
2022-12-03T03:00:16.395Z,102590.84
2022-12-03T03:02:44.607Z,102581.41
2022-12-03T03:05:12.237Z,102578.00
2022-12-03T03:07:40.359Z,102579.69
2022-12-03T03:10:09.290Z,102572.84
2022-12-03T03:12:39.208Z,102569.41
2022-12-03T03:15:07.665Z,102568.59
2022-12-03T03:17:35.318Z,102571.16
2022-12-03T03:20:03.181Z,102566.03
2022-12-03T03:22:33.076Z,102566.88
2022-12-03T03:24:59.641Z,102565.16
2022-12-03T03:27:27.016Z,102563.44
2022-12-03T03:29:53.807Z,102556.63
2022-12-03T03:32:20.602Z,102560.91
2022-12-03T03:34:47.300Z,102562.59
2022-12-03T03:37:13.767Z,102560.03
2022-12-03T03:39:40.257Z,102558.34
2022-12-03T03:42:06.694Z,102558.34
2022-12-03T03:44:33.416Z,102549.75
2022-12-03T03:47:00.011Z,102549.75
2022-12-03T03:49:27.253Z,102552.34
2022-12-03T03:51:54.217Z,102546.34
2022-12-03T03:54:21.533Z,102548.03
2022-12-03T03:56:48.127Z,102545.47
2022-12-03T03:59:15.171Z,102547.19
2022-12-03T04:01:43.680Z,102544.63
2022-12-03T04:04:19.833Z,102543.78
2022-12-03T04:06:47.194Z,102542.94
2022-12-03T04:09:13.592Z,102537.78
2022-12-03T04:11:58.315Z,102539.50
2022-12-03T04:14:24.952Z,102533.50
2022-12-03T04:16:51.467Z,102539.50
2022-12-03T04:19:17.957Z,102530.94
2022-12-03T04:22:02.784Z,102535.22
2022-12-03T04:24:29.151Z,102529.22
2022-12-03T04:27:14.249Z,102527.50
2022-12-03T04:29:40.689Z,102535.22
2022-12-03T04:32:25.454Z,102530.94
2022-12-03T04:35:10.423Z,102528.34
2022-12-03T04:37:36.824Z,102521.50
2022-12-03T04:40:23.917Z,102518.94
2022-12-03T04:42:50.266Z,102521.53
2022-12-03T04:45:16.837Z,102526.66
2022-12-03T04:47:43.357Z,102515.53
2022-12-03T04:50:10.308Z,102518.97
2022-12-03T04:52:36.858Z,102517.22
2022-12-03T04:55:03.635Z,102517.25
2022-12-03T04:57:30.020Z,102522.38
2022-12-03T04:59:56.394Z,102522.38
2022-12-03T05:02:22.856Z,102521.53
2022-12-03T05:04:49.335Z,102518.09
2022-12-03T05:07:15.743Z,102514.66
2022-12-03T05:09:42.121Z,102516.38
2022-12-03T05:12:08.768Z,102516.38
2022-12-03T05:14:35.252Z,102519.81
2022-12-03T05:17:01.676Z,102524.94
2022-12-03T05:19:48.101Z,102520.66
2022-12-03T05:22:14.524Z,102516.41
2022-12-03T05:24:40.929Z,102522.38
2022-12-03T05:27:07.325Z,102521.56
2022-12-03T05:29:33.723Z,102513.84
2022-12-03T05:32:00.138Z,102513.84
2022-12-03T05:34:26.646Z,102506.13
2022-12-03T05:36:53.033Z,102508.66
2022-12-03T05:39:19.422Z,102510.38
2022-12-03T05:42:04.960Z,102512.94
2022-12-03T05:44:31.760Z,102512.97
2022-12-03T05:46:58.152Z,102513.78
2022-12-03T05:49:24.573Z,102506.09
2022-12-03T05:51:55.206Z,102506.09
2022-12-03T05:54:24.832Z,102496.66
2022-12-03T05:56:51.343Z,102494.06
2022-12-03T05:59:17.848Z,102493.19
2022-12-03T06:01:44.339Z,102494.91
2022-12-03T06:04:10.704Z,102494.06
2022-12-03T06:06:37.215Z,102495.78
2022-12-03T06:09:04.719Z,102488.91
2022-12-03T06:11:34.051Z,102490.63
2022-12-03T06:14:01.045Z,102489.78
2022-12-03T06:16:27.647Z,102474.34
2022-12-03T06:18:54.239Z,102476.91
2022-12-03T06:21:20.797Z,102472.63
2022-12-03T06:23:47.194Z,102478.63
2022-12-03T06:26:14.486Z,102476.06
2022-12-03T06:28:46.340Z,102473.50
2022-12-03T06:31:13.537Z,102474.31
2022-12-03T06:33:40.002Z,102482.03
2022-12-03T06:36:06.865Z,102480.31
2022-12-03T06:38:33.313Z,102469.19
2022-12-03T06:40:59.737Z,102479.50
2022-12-03T06:43:26.131Z,102473.50
2022-12-03T06:45:52.951Z,102474.34
2022-12-03T06:48:19.388Z,102477.75
2022-12-03T06:50:45.753Z,102482.88
2022-12-03T06:53:12.174Z,102475.19
2022-12-03T06:55:38.536Z,102476.06
2022-12-03T06:58:04.948Z,102472.59
2022-12-03T07:00:31.338Z,102471.78
2022-12-03T07:02:57.774Z,102476.91
2022-12-03T07:05:24.241Z,102475.19
2022-12-03T07:07:52.194Z,102477.78
2022-12-03T07:10:19.394Z,102482.88
2022-12-03T07:12:45.808Z,102482.03
2022-12-03T07:15:12.307Z,102476.91
2022-12-03T07:17:39.028Z,102478.63
2022-12-03T07:20:06.324Z,102486.31
2022-12-03T07:22:33.029Z,102492.28
2022-12-03T07:24:59.437Z,102490.59
2022-12-03T07:27:25.803Z,102488.84
2022-12-03T07:29:52.179Z,102492.28
2022-12-03T07:32:18.596Z,102491.41
2022-12-03T07:34:45.031Z,102491.41
2022-12-03T07:37:11.429Z,102500.84
2022-12-03T07:39:37.837Z,102492.25
2022-12-03T07:42:04.680Z,102493.09
2022-12-03T07:44:31.951Z,102495.69
2022-12-03T07:46:58.701Z,102496.53
2022-12-03T07:49:26.636Z,102503.38
2022-12-03T07:51:57.225Z,102492.25
2022-12-03T07:54:24.488Z,102498.28
2022-12-03T07:56:51.067Z,102496.53
2022-12-03T07:59:17.830Z,102494.84
2022-12-03T08:01:44.805Z,102494.84
2022-12-03T08:04:12.911Z,102493.13
2022-12-03T08:06:39.287Z,102485.41
2022-12-03T08:09:05.676Z,102489.69
2022-12-03T08:11:32.927Z,102487.94
2022-12-03T08:13:59.568Z,102487.94
2022-12-03T08:16:26.179Z,102496.50
2022-12-03T08:18:54.638Z,102484.53
2022-12-03T08:21:21.947Z,102486.22
2022-12-03T08:23:48.642Z,102479.34
2022-12-03T08:26:22.565Z,102476.78
2022-12-03T08:28:49.889Z,102477.59
2022-12-03T08:31:28.017Z,102481.91
2022-12-03T08:34:13.789Z,102480.19
2022-12-03T08:36:40.213Z,102482.72
2022-12-03T08:39:33.611Z,102478.44
2022-12-03T08:42:30.683Z,102481.88
2022-12-03T08:45:19.487Z,102477.63
2022-12-03T08:47:46.206Z,102479.31
2022-12-03T08:50:40.098Z,102478.47
2022-12-03T08:53:27.594Z,102475.03
2022-12-03T08:55:59.533Z,102473.31
2022-12-03T08:58:43.954Z,102474.16
2022-12-03T09:01:10.650Z,102471.63
2022-12-03T09:03:48.682Z,102473.31
2022-12-03T09:06:15.200Z,102471.63
2022-12-03T09:08:41.639Z,102465.63
2022-12-03T09:11:08.007Z,102465.63
2022-12-03T09:13:34.515Z,102472.50
2022-12-03T09:16:00.899Z,102468.19
2022-12-03T09:18:27.348Z,102461.34
2022-12-03T09:20:53.737Z,102457.91
2022-12-03T09:23:20.141Z,102460.47
2022-12-03T09:25:46.519Z,102462.19
2022-12-03T09:28:12.892Z,102453.59
2022-12-03T09:30:39.292Z,102462.16
2022-12-03T09:33:05.728Z,102464.75
2022-12-03T09:35:32.203Z,102454.47
2022-12-03T09:37:58.602Z,102465.63
2022-12-03T09:40:24.992Z,102455.31
2022-12-03T09:42:52.002Z,102459.59
2022-12-03T09:45:18.527Z,102461.31
2022-12-03T09:47:47.736Z,102469.03
2022-12-03T09:50:18.683Z,102463.00
2022-12-03T09:52:45.453Z,102467.28
2022-12-03T09:55:16.532Z,102469.84
2022-12-03T09:57:42.966Z,102461.25
2022-12-03T10:00:24.394Z,102464.69
2022-12-03T10:02:54.645Z,102469.81
2022-12-03T10:05:22.454Z,102464.66
2022-12-03T10:07:50.553Z,102460.38
2022-12-03T10:10:20.836Z,102472.41
2022-12-03T10:12:48.308Z,102476.72
2022-12-03T10:15:17.412Z,102474.16
2022-12-03T10:17:46.353Z,102464.75
2022-12-03T10:20:15.902Z,102473.31
2022-12-03T10:22:42.438Z,102467.34
2022-12-03T10:25:16.020Z,102462.16
2022-12-03T10:27:42.988Z,102469.00
2022-12-03T10:30:22.287Z,102469.00
2022-12-03T10:32:50.836Z,102462.97
2022-12-03T10:35:23.661Z,102460.38
2022-12-03T10:38:22.278Z,102455.25
2022-12-03T10:40:49.479Z,102455.22
2022-12-03T10:43:18.671Z,102446.63
2022-12-03T10:45:46.053Z,102445.78
2022-12-03T10:48:17.012Z,102441.50
2022-12-03T10:50:48.255Z,102436.38
2022-12-03T10:53:14.682Z,102433.81
2022-12-03T10:55:43.497Z,102429.56
2022-12-03T10:58:20.330Z,102426.09
2022-12-03T11:00:47.317Z,102423.53
2022-12-03T11:03:37.109Z,102424.41
2022-12-03T11:06:03.716Z,102420.13
2022-12-03T11:08:35.674Z,102422.69
2022-12-03T11:11:16.000Z,102418.41
2022-12-03T11:13:45.588Z,102424.38
2022-12-03T11:16:12.929Z,102412.34
2022-12-03T11:18:39.461Z,102414.91
2022-12-03T11:21:08.641Z,102409.78
2022-12-03T11:23:44.201Z,102405.53
2022-12-03T11:26:28.957Z,102404.66
2022-12-03T11:28:57.779Z,102400.34
2022-12-03T11:31:41.983Z,102402.94
2022-12-03T11:34:20.617Z,102390.91
2022-12-03T11:37:11.855Z,102390.94
2022-12-03T11:39:50.652Z,102390.09
2022-12-03T11:42:26.101Z,102391.81
2022-12-03T11:45:05.159Z,102389.28
2022-12-03T11:47:53.200Z,102380.69
2022-12-03T11:50:21.586Z,102382.41
2022-12-03T11:52:53.240Z,102378.13
2022-12-03T11:55:29.301Z,102374.69
2022-12-03T11:58:01.138Z,102376.38
2022-12-03T12:00:27.659Z,102380.66
2022-12-03T12:02:56.831Z,102372.09
2022-12-03T12:05:28.048Z,102371.25
2022-12-03T12:07:55.569Z,102366.13
2022-12-03T12:10:48.518Z,102364.41
2022-12-03T12:13:30.123Z,102367.00
2022-12-03T12:15:57.608Z,102356.72
2022-12-03T12:18:55.538Z,102358.41
2022-12-03T12:21:44.020Z,102356.66
2022-12-03T12:24:46.903Z,102353.25
2022-12-03T12:27:37.731Z,102344.69
2022-12-03T12:30:06.805Z,102343.84
2022-12-03T12:32:47.122Z,102333.59
2022-12-03T12:35:25.352Z,102325.00
2022-12-03T12:37:58.917Z,102329.31
2022-12-03T12:40:31.013Z,102321.56
2022-12-03T12:42:58.967Z,102326.72
2022-12-03T12:45:36.246Z,102326.72
2022-12-03T12:48:16.638Z,102322.41
2022-12-03T12:50:45.875Z,102323.28
2022-12-03T12:53:24.168Z,102323.28
2022-12-03T12:56:01.890Z,102308.69
2022-12-03T12:58:31.504Z,102312.13
2022-12-03T13:01:00.929Z,102313.81
2022-12-03T13:03:32.657Z,102309.53
2022-12-03T13:05:59.245Z,102318.09
2022-12-03T13:08:32.593Z,102312.13
2022-12-03T13:11:01.491Z,102306.97
2022-12-03T13:13:44.306Z,102306.97
2022-12-03T13:16:23.109Z,102310.38
2022-12-03T13:18:54.450Z,102306.91
2022-12-03T13:21:36.173Z,102308.66
2022-12-03T13:24:10.289Z,102309.50
2022-12-03T13:26:39.756Z,102306.06
2022-12-03T13:29:15.434Z,102304.34
2022-12-03T13:31:49.329Z,102303.50
2022-12-03T13:34:22.124Z,102301.78
2022-12-03T13:36:55.281Z,102296.66
2022-12-03T13:39:31.628Z,102297.47
2022-12-03T13:42:31.198Z,102295.78
2022-12-03T13:44:57.666Z,102294.03
2022-12-03T13:47:24.254Z,102290.63
2022-12-03T13:49:58.232Z,102284.56
2022-12-03T13:52:26.139Z,102287.97
2022-12-03T13:54:55.017Z,102280.31
2022-12-03T13:57:21.690Z,102284.59
2022-12-03T13:59:48.135Z,102285.47
2022-12-03T14:02:14.698Z,102289.72
2022-12-03T14:04:41.707Z,102283.69
2022-12-03T14:07:08.112Z,102280.22
2022-12-03T14:09:34.527Z,102281.09
2022-12-03T14:12:19.436Z,102285.38
2022-12-03T14:14:45.827Z,102281.94
2022-12-03T14:17:12.350Z,102278.56
2022-12-03T14:19:38.792Z,102275.09
2022-12-03T14:22:07.918Z,102272.53
2022-12-03T14:24:34.438Z,102274.22
2022-12-03T14:27:00.801Z,102263.94
2022-12-03T14:29:27.603Z,102260.53
2022-12-03T14:31:54.073Z,102257.09
2022-12-03T14:34:20.500Z,102263.94
2022-12-03T14:36:46.901Z,102258.78
2022-12-03T14:39:13.285Z,102259.66
2022-12-03T14:41:58.623Z,102261.38
2022-12-03T14:44:25.422Z,102263.09
2022-12-03T14:46:56.785Z,102263.97
2022-12-03T14:49:23.451Z,102262.25
2022-12-03T14:51:49.893Z,102259.66
2022-12-03T14:54:16.337Z,102264.81
2022-12-03T14:56:42.688Z,102260.53
2022-12-03T14:59:09.105Z,102262.25
2022-12-03T15:01:35.741Z,102263.94
2022-12-03T15:04:02.234Z,102275.94
2022-12-03T15:06:28.883Z,102261.38
2022-12-03T15:08:55.245Z,102258.78
2022-12-03T15:11:21.733Z,102260.50
2022-12-03T15:13:48.323Z,102257.94
2022-12-03T15:16:14.839Z,102259.66
2022-12-03T15:18:41.313Z,102264.78
2022-12-03T15:21:08.039Z,102259.66
2022-12-03T15:23:34.441Z,102266.47
2022-12-03T15:26:00.866Z,102263.06
2022-12-03T15:28:27.744Z,102256.22
2022-12-03T15:30:54.594Z,102262.22
2022-12-03T15:33:21.176Z,102258.81
2022-12-03T15:35:47.683Z,102259.63
2022-12-03T15:38:14.121Z,102266.44
2022-12-03T15:40:40.805Z,102268.16
2022-12-03T15:43:08.788Z,102269.84
2022-12-03T15:45:35.452Z,102261.28
2022-12-03T15:48:02.385Z,102263.00
2022-12-03T15:50:29.002Z,102273.25
2022-12-03T15:52:55.725Z,102271.53
2022-12-03T15:55:22.127Z,102268.13
2022-12-03T15:57:49.196Z,102276.66
2022-12-03T16:00:17.361Z,102280.94
2022-12-03T16:02:49.008Z,102274.09
2022-12-03T16:05:18.905Z,102274.97
2022-12-03T16:07:45.377Z,102277.53
2022-12-03T16:10:12.176Z,102273.22
2022-12-03T16:12:38.721Z,102271.50
2022-12-03T16:15:05.734Z,102274.94
2022-12-03T16:17:32.257Z,102269.81
2022-12-03T16:19:58.717Z,102271.50
2022-12-03T16:22:25.129Z,102267.22
2022-12-03T16:24:51.696Z,102262.94
2022-12-03T16:27:21.574Z,102263.78
2022-12-03T16:29:50.508Z,102267.22
2022-12-03T16:32:17.164Z,102256.94
2022-12-03T16:34:43.585Z,102261.19
2022-12-03T16:37:11.420Z,102263.78
2022-12-03T16:39:37.812Z,102263.78
2022-12-03T16:42:05.778Z,102255.22
2022-12-03T16:44:54.335Z,102257.78
2022-12-03T16:47:22.172Z,102245.81
2022-12-03T16:49:49.580Z,102244.06
2022-12-03T16:52:16.768Z,102244.94
2022-12-03T16:54:43.174Z,102240.66
2022-12-03T16:57:09.578Z,102236.38
2022-12-03T16:59:36.076Z,102244.91
2022-12-03T17:02:02.538Z,102244.91
2022-12-03T17:04:29.046Z,102235.53
2022-12-03T17:06:55.473Z,102242.38
2022-12-03T17:09:21.939Z,102237.22
2022-12-03T17:11:48.418Z,102240.66
2022-12-03T17:14:14.974Z,102244.94
2022-12-03T17:16:41.424Z,102239.78
2022-12-03T17:19:07.858Z,102242.34
2022-12-03T17:21:35.278Z,102243.16
2022-12-03T17:24:01.741Z,102246.59
2022-12-03T17:26:28.150Z,102250.88
2022-12-03T17:28:54.645Z,102248.28
2022-12-03T17:31:21.084Z,102250.84
2022-12-03T17:33:47.541Z,102247.44
2022-12-03T17:36:13.969Z,102250.00
2022-12-03T17:38:40.568Z,102246.56
2022-12-03T17:41:07.632Z,102247.38
2022-12-03T17:43:34.266Z,102243.97
2022-12-03T17:46:00.749Z,102249.94
2022-12-03T17:48:31.186Z,102242.22
2022-12-03T17:50:58.072Z,102245.66
2022-12-03T17:53:24.766Z,102242.22
2022-12-03T17:55:51.424Z,102241.38
2022-12-03T17:58:17.804Z,102246.50
2022-12-03T18:00:44.327Z,102238.81
2022-12-03T18:03:10.814Z,102238.81
2022-12-03T18:05:37.342Z,102242.22
2022-12-03T18:08:03.988Z,102238.81
2022-12-03T18:10:30.511Z,102240.53
2022-12-03T18:13:01.508Z,102231.97
2022-12-03T18:15:29.063Z,102235.38
2022-12-03T18:17:55.520Z,102233.69
2022-12-03T18:20:21.928Z,102225.97
2022-12-03T18:22:48.403Z,102230.28
2022-12-03T18:25:14.908Z,102220.00
2022-12-03T18:27:41.446Z,102223.41
2022-12-03T18:30:08.502Z,102219.97
2022-12-03T18:32:35.095Z,102218.25
2022-12-03T18:35:01.495Z,102219.97
2022-12-03T18:37:29.661Z,102219.13
2022-12-03T18:39:57.291Z,102208.00
2022-12-03T18:42:24.672Z,102208.00
2022-12-03T18:44:55.127Z,102208.00
2022-12-03T18:47:24.431Z,102213.13
2022-12-03T18:49:51.193Z,102212.25
2022-12-03T18:52:20.132Z,102212.22
2022-12-03T18:54:47.381Z,102208.81
2022-12-03T18:57:14.390Z,102208.81
2022-12-03T18:59:41.149Z,102213.94
2022-12-03T19:02:08.070Z,102213.94
2022-12-03T19:04:34.596Z,102207.97
2022-12-03T19:07:01.047Z,102208.81
2022-12-03T19:09:27.504Z,102212.22
2022-12-03T19:11:54.038Z,102203.66
2022-12-03T19:14:20.429Z,102206.22
2022-12-03T19:16:46.899Z,102213.06
2022-12-03T19:19:13.511Z,102213.88
2022-12-03T19:21:39.898Z,102215.59
2022-12-03T19:26:55.517Z,102209.59
2022-12-03T19:29:23.035Z,102210.47
2022-12-03T19:31:50.858Z,102207.03
2022-12-03T19:34:18.117Z,102206.19
2022-12-03T19:36:44.905Z,102204.47
2022-12-03T19:39:11.299Z,102206.19
2022-12-03T19:41:37.683Z,102201.06
2022-12-03T19:44:10.582Z,102193.34
2022-12-03T19:46:37.399Z,102197.63
2022-12-03T19:49:04.872Z,102195.03
2022-12-03T19:51:35.707Z,102195.03
2022-12-03T19:54:06.971Z,102191.59
2022-12-03T19:56:33.934Z,102195.03
2022-12-03T19:59:00.462Z,102195.88
2022-12-03T20:01:29.956Z,102190.75
2022-12-03T20:03:58.411Z,102191.59
2022-12-03T20:06:27.818Z,102183.06
2022-12-03T20:08:59.492Z,102191.59
2022-12-03T20:11:31.430Z,102198.47
2022-12-03T20:14:00.472Z,102195.03
2022-12-03T20:16:27.914Z,102195.03
2022-12-03T20:18:59.907Z,102188.16
2022-12-03T20:21:28.853Z,102193.28
2022-12-03T20:23:55.219Z,102191.56
2022-12-03T20:26:21.928Z,102198.41
2022-12-03T20:28:49.034Z,102195.81
2022-12-03T20:31:20.714Z,102189.88
2022-12-03T20:33:52.147Z,102188.97
2022-12-03T20:36:20.821Z,102191.53
2022-12-03T20:38:47.344Z,102179.56
2022-12-03T20:41:16.879Z,102178.69
2022-12-03T20:43:43.250Z,102178.72
2022-12-03T20:46:39.322Z,102181.28
2022-12-03T20:49:05.818Z,102171.84
2022-12-03T20:51:32.688Z,102175.28
2022-12-03T20:54:01.037Z,102173.56
2022-12-03T20:56:31.227Z,102173.56
2022-12-03T20:59:05.603Z,102159.91
2022-12-03T21:01:32.560Z,102154.75
2022-12-03T21:03:59.144Z,102156.44
2022-12-03T21:06:27.955Z,102160.72
2022-12-03T21:08:55.741Z,102150.47
2022-12-03T21:11:24.966Z,102159.00
2022-12-03T21:13:53.440Z,102156.44
2022-12-03T21:16:45.412Z,102151.31
2022-12-03T21:19:10.680Z,102162.44
2022-12-03T21:21:37.225Z,102166.69
2022-12-03T21:24:03.842Z,102164.97
2022-12-03T21:26:30.333Z,102159.81
2022-12-03T21:28:56.712Z,102160.66
2022-12-03T21:31:25.889Z,102163.22
2022-12-03T21:33:54.099Z,102154.69
2022-12-03T21:36:20.792Z,102160.66
2022-12-03T21:38:48.204Z,102158.09
2022-12-03T21:41:15.004Z,102147.81
2022-12-03T21:43:42.465Z,102151.25
2022-12-03T21:47:09.618Z,102154.66
2022-12-03T21:48:59.417Z,102146.97
2022-12-03T21:51:25.901Z,102146.97
2022-12-03T21:53:53.148Z,102157.22
2022-12-03T21:56:19.706Z,102155.50
2022-12-03T21:58:46.231Z,102154.66
2022-12-03T22:01:19.139Z,102154.66
2022-12-03T22:03:46.259Z,102146.97
2022-12-03T22:06:13.681Z,102153.81
2022-12-03T22:08:40.663Z,102146.13
2022-12-03T22:11:09.883Z,102149.50
2022-12-03T22:13:38.772Z,102141.81
2022-12-03T22:16:14.298Z,102149.50
2022-12-03T22:18:40.817Z,102143.53
2022-12-03T22:21:09.622Z,102140.09
2022-12-03T22:23:36.395Z,102146.94
2022-12-03T22:26:09.011Z,102140.97
2022-12-03T22:28:35.404Z,102146.09
2022-12-03T22:31:09.230Z,102146.09
2022-12-03T22:33:36.799Z,102145.22
2022-12-03T22:36:13.379Z,102151.22
2022-12-03T22:38:44.699Z,102148.63
2022-12-03T22:41:13.148Z,102145.19
2022-12-03T22:43:40.105Z,102145.22
2022-12-03T22:46:10.308Z,102148.66
2022-12-03T22:48:37.053Z,102144.34
2022-12-03T22:51:04.499Z,102139.22
2022-12-03T22:53:31.013Z,102137.53
2022-12-03T22:55:59.423Z,102139.25
2022-12-03T22:58:27.013Z,102133.28
2022-12-03T23:00:56.242Z,102132.44
2022-12-03T23:03:26.422Z,102133.28
2022-12-03T23:05:52.933Z,102130.75
2022-12-03T23:08:20.857Z,102129.88
2022-12-03T23:10:49.668Z,102123.91
2022-12-03T23:13:16.756Z,102120.47
2022-12-03T23:15:50.363Z,102124.75
2022-12-03T23:18:18.410Z,102121.31
2022-12-03T23:20:47.614Z,102120.44
2022-12-03T23:23:15.054Z,102118.75
2022-12-03T23:25:41.819Z,102118.75
2022-12-03T23:28:09.136Z,102117.91
2022-12-03T23:30:39.495Z,102116.19
2022-12-03T23:33:06.543Z,102126.44
2022-12-03T23:35:33.307Z,102136.69
2022-12-03T23:37:59.779Z,102129.00
2022-12-03T23:40:26.212Z,102126.44
2022-12-03T23:42:52.641Z,102129.84
2022-12-03T23:45:19.119Z,102127.31
2022-12-03T23:47:45.530Z,102121.31
2022-12-03T23:50:12.152Z,102122.19
2022-12-03T23:52:38.624Z,102134.16
2022-12-03T23:55:05.483Z,102131.59
2022-12-03T23:57:31.873Z,102123.91
2022-12-03T23:59:58.325Z,102118.75
